sensor_id;sensor_type;location;lat;lon;timestamp;P1;durP1;ratioP1;P2;durP2;ratioP2
21018;SDS011;10667;51.056;3.732;2023-05-06T00:00:04;9.73;;;4.32;;
21018;SDS011;10667;51.056;3.732;2023-05-06T00:02:30;5.38;;;4.35;;
21018;SDS011;10667;51.056;3.732;2023-05-06T00:04:56;7.40;;;4.15;;
21018;SDS011;10667;51.056;3.732;2023-05-06T00:07:21;8.80;;;3.80;;
21018;SDS011;10667;51.056;3.732;2023-05-06T00:09:47;9.77;;;4.10;;
21018;SDS011;10667;51.056;3.732;2023-05-06T00:12:13;5.70;;;4.25;;
21018;SDS011;10667;51.056;3.732;2023-05-06T00:14:39;7.30;;;4.47;;
21018;SDS011;10667;51.056;3.732;2023-05-06T00:17:04;5.95;;;3.80;;
21018;SDS011;10667;51.056;3.732;2023-05-06T00:19:30;5.43;;;3.85;;
21018;SDS011;10667;51.056;3.732;2023-05-06T00:21:56;8.80;;;4.20;;
21018;SDS011;10667;51.056;3.732;2023-05-06T00:24:22;7.55;;;3.60;;
21018;SDS011;10667;51.056;3.732;2023-05-06T00:26:48;7.93;;;4.45;;
21018;SDS011;10667;51.056;3.732;2023-05-06T00:29:14;5.30;;;3.70;;
21018;SDS011;10667;51.056;3.732;2023-05-06T00:31:40;8.10;;;3.65;;
21018;SDS011;10667;51.056;3.732;2023-05-06T00:34:05;5.43;;;3.78;;
21018;SDS011;10667;51.056;3.732;2023-05-06T00:36:31;4.65;;;3.40;;
21018;SDS011;10667;51.056;3.732;2023-05-06T00:38:57;10.02;;;4.40;;
21018;SDS011;10667;51.056;3.732;2023-05-06T00:41:22;7.97;;;3.55;;
21018;SDS011;10667;51.056;3.732;2023-05-06T00:43:48;5.03;;;3.78;;
21018;SDS011;10667;51.056;3.732;2023-05-06T00:46:15;4.85;;;3.50;;
21018;SDS011;10667;51.056;3.732;2023-05-06T00:48:41;6.10;;;3.88;;
21018;SDS011;10667;51.056;3.732;2023-05-06T00:51:08;6.90;;;3.85;;
21018;SDS011;10667;51.056;3.732;2023-05-06T00:53:34;5.03;;;3.72;;
21018;SDS011;10667;51.056;3.732;2023-05-06T00:56:01;5.70;;;3.97;;
21018;SDS011;10667;51.056;3.732;2023-05-06T00:58:27;8.10;;;4.50;;
21018;SDS011;10667;51.056;3.732;2023-05-06T01:00:53;11.07;;;4.70;;
21018;SDS011;10667;51.056;3.732;2023-05-06T01:03:19;9.38;;;4.18;;
21018;SDS011;10667;51.056;3.732;2023-05-06T01:06:08;6.32;;;4.03;;
21018;SDS011;10667;51.056;3.732;2023-05-06T01:08:53;6.32;;;4.07;;
21018;SDS011;10667;51.056;3.732;2023-05-06T01:16:22;6.38;;;4.40;;
21018;SDS011;10667;51.056;3.732;2023-05-06T01:18:50;7.90;;;4.50;;
21018;SDS011;10667;51.056;3.732;2023-05-06T01:21:17;6.68;;;4.28;;
21018;SDS011;10667;51.056;3.732;2023-05-06T01:23:55;9.07;;;4.35;;
21018;SDS011;10667;51.056;3.732;2023-05-06T01:26:22;8.63;;;4.80;;
21018;SDS011;10667;51.056;3.732;2023-05-06T01:28:48;8.70;;;5.43;;
21018;SDS011;10667;51.056;3.732;2023-05-06T01:31:16;9.07;;;4.78;;
21018;SDS011;10667;51.056;3.732;2023-05-06T01:36:16;6.80;;;4.18;;
21018;SDS011;10667;51.056;3.732;2023-05-06T01:41:27;8.15;;;4.38;;
21018;SDS011;10667;51.056;3.732;2023-05-06T01:43:57;7.82;;;4.50;;
21018;SDS011;10667;51.056;3.732;2023-05-06T01:46:25;7.43;;;4.70;;
21018;SDS011;10667;51.056;3.732;2023-05-06T01:48:53;6.53;;;4.22;;
21018;SDS011;10667;51.056;3.732;2023-05-06T01:51:20;7.60;;;4.53;;
21018;SDS011;10667;51.056;3.732;2023-05-06T01:53:47;5.90;;;4.50;;
21018;SDS011;10667;51.056;3.732;2023-05-06T01:56:13;6.70;;;4.55;;
21018;SDS011;10667;51.056;3.732;2023-05-06T01:58:40;6.93;;;4.35;;
21018;SDS011;10667;51.056;3.732;2023-05-06T02:01:06;7.22;;;4.63;;
21018;SDS011;10667;51.056;3.732;2023-05-06T02:03:31;9.13;;;4.55;;
21018;SDS011;10667;51.056;3.732;2023-05-06T02:05:57;8.80;;;5.00;;
21018;SDS011;10667;51.056;3.732;2023-05-06T02:08:23;6.93;;;4.57;;
21018;SDS011;10667;51.056;3.732;2023-05-06T02:10:48;8.30;;;4.95;;
21018;SDS011;10667;51.056;3.732;2023-05-06T02:13:16;6.28;;;4.70;;
21018;SDS011;10667;51.056;3.732;2023-05-06T02:15:42;7.30;;;4.60;;
21018;SDS011;10667;51.056;3.732;2023-05-06T02:18:08;6.07;;;4.65;;
21018;SDS011;10667;51.056;3.732;2023-05-06T02:20:34;5.47;;;4.50;;
21018;SDS011;10667;51.056;3.732;2023-05-06T02:22:59;7.28;;;4.70;;
21018;SDS011;10667;51.056;3.732;2023-05-06T02:25:25;6.88;;;4.22;;
21018;SDS011;10667;51.056;3.732;2023-05-06T02:27:51;5.47;;;4.07;;
21018;SDS011;10667;51.056;3.732;2023-05-06T02:30:17;6.90;;;4.30;;
21018;SDS011;10667;51.056;3.732;2023-05-06T02:32:42;7.18;;;4.78;;
21018;SDS011;10667;51.056;3.732;2023-05-06T02:35:08;7.90;;;4.93;;
21018;SDS011;10667;51.056;3.732;2023-05-06T02:37:34;7.85;;;4.80;;
21018;SDS011;10667;51.056;3.732;2023-05-06T02:39:59;8.27;;;4.95;;
21018;SDS011;10667;51.056;3.732;2023-05-06T02:42:25;6.43;;;4.63;;
21018;SDS011;10667;51.056;3.732;2023-05-06T02:44:50;8.38;;;4.05;;
21018;SDS011;10667;51.056;3.732;2023-05-06T02:47:16;6.28;;;4.60;;
21018;SDS011;10667;51.056;3.732;2023-05-06T02:49:42;9.05;;;4.85;;
21018;SDS011;10667;51.056;3.732;2023-05-06T02:52:07;8.20;;;4.75;;
21018;SDS011;10667;51.056;3.732;2023-05-06T02:54:33;6.68;;;4.43;;
21018;SDS011;10667;51.056;3.732;2023-05-06T02:56:59;8.23;;;5.10;;
21018;SDS011;10667;51.056;3.732;2023-05-06T02:59:25;8.98;;;4.93;;
21018;SDS011;10667;51.056;3.732;2023-05-06T03:01:50;7.20;;;5.00;;
21018;SDS011;10667;51.056;3.732;2023-05-06T03:04:16;6.63;;;4.68;;
21018;SDS011;10667;51.056;3.732;2023-05-06T03:06:42;9.55;;;5.00;;
21018;SDS011;10667;51.056;3.732;2023-05-06T03:09:08;10.30;;;5.28;;
21018;SDS011;10667;51.056;3.732;2023-05-06T03:11:33;6.22;;;5.13;;
21018;SDS011;10667;51.056;3.732;2023-05-06T03:13:59;8.30;;;5.60;;
21018;SDS011;10667;51.056;3.732;2023-05-06T03:16:25;6.80;;;5.18;;
21018;SDS011;10667;51.056;3.732;2023-05-06T03:18:50;7.63;;;5.40;;
21018;SDS011;10667;51.056;3.732;2023-05-06T03:21:16;5.65;;;5.03;;
21018;SDS011;10667;51.056;3.732;2023-05-06T03:23:42;9.35;;;5.40;;
21018;SDS011;10667;51.056;3.732;2023-05-06T03:26:07;7.97;;;4.78;;
21018;SDS011;10667;51.056;3.732;2023-05-06T03:28:33;6.47;;;4.80;;
21018;SDS011;10667;51.056;3.732;2023-05-06T03:30:58;5.47;;;4.75;;
21018;SDS011;10667;51.056;3.732;2023-05-06T03:33:24;7.65;;;5.20;;
21018;SDS011;10667;51.056;3.732;2023-05-06T03:35:50;9.10;;;5.25;;
21018;SDS011;10667;51.056;3.732;2023-05-06T03:38:15;6.80;;;4.82;;
21018;SDS011;10667;51.056;3.732;2023-05-06T03:40:41;6.35;;;4.95;;
21018;SDS011;10667;51.056;3.732;2023-05-06T03:43:07;7.13;;;4.97;;
21018;SDS011;10667;51.056;3.732;2023-05-06T03:45:32;6.50;;;5.50;;
21018;SDS011;10667;51.056;3.732;2023-05-06T03:47:58;9.55;;;5.32;;
21018;SDS011;10667;51.056;3.732;2023-05-06T03:50:24;8.32;;;5.75;;
21018;SDS011;10667;51.056;3.732;2023-05-06T03:52:49;7.75;;;4.85;;
21018;SDS011;10667;51.056;3.732;2023-05-06T03:55:15;12.30;;;5.95;;
21018;SDS011;10667;51.056;3.732;2023-05-06T03:57:41;10.07;;;5.60;;
21018;SDS011;10667;51.056;3.732;2023-05-06T04:00:07;6.28;;;4.97;;
21018;SDS011;10667;51.056;3.732;2023-05-06T04:02:33;7.60;;;5.32;;
21018;SDS011;10667;51.056;3.732;2023-05-06T04:05:00;5.80;;;4.95;;
21018;SDS011;10667;51.056;3.732;2023-05-06T04:07:26;8.55;;;5.07;;
21018;SDS011;10667;51.056;3.732;2023-05-06T04:09:51;8.82;;;5.20;;
21018;SDS011;10667;51.056;3.732;2023-05-06T04:12:17;8.38;;;5.38;;
21018;SDS011;10667;51.056;3.732;2023-05-06T04:14:42;7.75;;;5.47;;
21018;SDS011;10667;51.056;3.732;2023-05-06T04:17:08;7.90;;;5.18;;
21018;SDS011;10667;51.056;3.732;2023-05-06T04:19:34;6.53;;;5.20;;
21018;SDS011;10667;51.056;3.732;2023-05-06T04:21:59;6.07;;;5.43;;
21018;SDS011;10667;51.056;3.732;2023-05-06T04:24:25;7.63;;;4.75;;
21018;SDS011;10667;51.056;3.732;2023-05-06T04:26:52;6.10;;;4.60;;
21018;SDS011;10667;51.056;3.732;2023-05-06T04:29:18;7.03;;;5.10;;
21018;SDS011;10667;51.056;3.732;2023-05-06T04:31:43;6.22;;;5.13;;
21018;SDS011;10667;51.056;3.732;2023-05-06T04:34:10;6.80;;;4.50;;
21018;SDS011;10667;51.056;3.732;2023-05-06T04:36:36;6.75;;;5.25;;
21018;SDS011;10667;51.056;3.732;2023-05-06T04:39:01;7.28;;;5.13;;
21018;SDS011;10667;51.056;3.732;2023-05-06T04:41:27;8.88;;;5.60;;
21018;SDS011;10667;51.056;3.732;2023-05-06T04:43:55;5.85;;;4.82;;
21018;SDS011;10667;51.056;3.732;2023-05-06T04:46:20;7.82;;;5.20;;
21018;SDS011;10667;51.056;3.732;2023-05-06T04:48:47;8.40;;;5.63;;
21018;SDS011;10667;51.056;3.732;2023-05-06T04:51:13;7.47;;;5.28;;
21018;SDS011;10667;51.056;3.732;2023-05-06T04:53:39;7.32;;;5.47;;
21018;SDS011;10667;51.056;3.732;2023-05-06T04:56:05;7.45;;;5.50;;
21018;SDS011;10667;51.056;3.732;2023-05-06T04:58:31;10.18;;;5.78;;
21018;SDS011;10667;51.056;3.732;2023-05-06T05:00:57;9.32;;;5.70;;
21018;SDS011;10667;51.056;3.732;2023-05-06T05:03:23;7.35;;;5.80;;
21018;SDS011;10667;51.056;3.732;2023-05-06T05:05:49;6.80;;;5.45;;
21018;SDS011;10667;51.056;3.732;2023-05-06T05:08:14;8.50;;;5.82;;
21018;SDS011;10667;51.056;3.732;2023-05-06T05:10:40;8.68;;;5.63;;
21018;SDS011;10667;51.056;3.732;2023-05-06T05:13:07;11.35;;;6.65;;
21018;SDS011;10667;51.056;3.732;2023-05-06T05:15:33;8.52;;;6.00;;
21018;SDS011;10667;51.056;3.732;2023-05-06T05:17:58;10.90;;;6.20;;
21018;SDS011;10667;51.056;3.732;2023-05-06T05:20:24;8.82;;;6.57;;
21018;SDS011;10667;51.056;3.732;2023-05-06T05:22:49;8.88;;;6.30;;
21018;SDS011;10667;51.056;3.732;2023-05-06T05:25:15;8.10;;;5.38;;
21018;SDS011;10667;51.056;3.732;2023-05-06T05:27:41;8.23;;;5.78;;
21018;SDS011;10667;51.056;3.732;2023-05-06T05:30:07;8.30;;;6.40;;
21018;SDS011;10667;51.056;3.732;2023-05-06T05:32:33;9.98;;;6.15;;
21018;SDS011;10667;51.056;3.732;2023-05-06T05:34:58;8.95;;;7.05;;
21018;SDS011;10667;51.056;3.732;2023-05-06T05:37:24;8.75;;;6.25;;
21018;SDS011;10667;51.056;3.732;2023-05-06T05:39:50;12.07;;;5.95;;
21018;SDS011;10667;51.056;3.732;2023-05-06T05:42:15;11.82;;;6.00;;
21018;SDS011;10667;51.056;3.732;2023-05-06T05:44:41;9.48;;;6.22;;
21018;SDS011;10667;51.056;3.732;2023-05-06T05:47:06;9.45;;;6.47;;
21018;SDS011;10667;51.056;3.732;2023-05-06T05:49:32;11.00;;;6.85;;
21018;SDS011;10667;51.056;3.732;2023-05-06T05:51:58;8.23;;;5.45;;
21018;SDS011;10667;51.056;3.732;2023-05-06T05:54:23;7.90;;;5.70;;
21018;SDS011;10667;51.056;3.732;2023-05-06T05:56:49;8.68;;;5.95;;
21018;SDS011;10667;51.056;3.732;2023-05-06T05:59:15;9.15;;;6.25;;
21018;SDS011;10667;51.056;3.732;2023-05-06T06:01:40;7.95;;;5.68;;
21018;SDS011;10667;51.056;3.732;2023-05-06T06:04:06;9.55;;;6.00;;
21018;SDS011;10667;51.056;3.732;2023-05-06T06:06:31;11.38;;;6.03;;
21018;SDS011;10667;51.056;3.732;2023-05-06T06:08:57;9.07;;;5.47;;
21018;SDS011;10667;51.056;3.732;2023-05-06T06:11:23;10.13;;;5.88;;
21018;SDS011;10667;51.056;3.732;2023-05-06T06:13:50;9.95;;;5.88;;
21018;SDS011;10667;51.056;3.732;2023-05-06T06:16:16;7.35;;;5.93;;
21018;SDS011;10667;51.056;3.732;2023-05-06T06:18:42;11.15;;;5.53;;
21018;SDS011;10667;51.056;3.732;2023-05-06T06:21:07;9.05;;;5.63;;
21018;SDS011;10667;51.056;3.732;2023-05-06T06:23:33;8.98;;;5.95;;
21018;SDS011;10667;51.056;3.732;2023-05-06T06:25:58;7.15;;;5.40;;
21018;SDS011;10667;51.056;3.732;2023-05-06T06:28:26;7.95;;;5.50;;
21018;SDS011;10667;51.056;3.732;2023-05-06T06:30:51;11.57;;;5.78;;
21018;SDS011;10667;51.056;3.732;2023-05-06T06:33:17;9.20;;;5.82;;
21018;SDS011;10667;51.056;3.732;2023-05-06T06:35:43;9.98;;;6.10;;
21018;SDS011;10667;51.056;3.732;2023-05-06T06:38:08;8.45;;;5.47;;
21018;SDS011;10667;51.056;3.732;2023-05-06T06:40:34;11.10;;;5.85;;
21018;SDS011;10667;51.056;3.732;2023-05-06T06:43:00;6.32;;;5.10;;
21018;SDS011;10667;51.056;3.732;2023-05-06T06:45:25;7.50;;;5.30;;
21018;SDS011;10667;51.056;3.732;2023-05-06T06:47:51;9.63;;;5.28;;
21018;SDS011;10667;51.056;3.732;2023-05-06T06:50:16;5.75;;;5.10;;
21018;SDS011;10667;51.056;3.732;2023-05-06T06:52:42;5.38;;;4.65;;
21018;SDS011;10667;51.056;3.732;2023-05-06T06:55:08;9.50;;;4.80;;
21018;SDS011;10667;51.056;3.732;2023-05-06T06:57:35;9.98;;;5.55;;
21018;SDS011;10667;51.056;3.732;2023-05-06T07:00:02;7.65;;;4.55;;
21018;SDS011;10667;51.056;3.732;2023-05-06T07:02:28;14.90;;;5.13;;
21018;SDS011;10667;51.056;3.732;2023-05-06T07:04:54;6.22;;;5.03;;
21018;SDS011;10667;51.056;3.732;2023-05-06T07:07:19;7.65;;;4.70;;
21018;SDS011;10667;51.056;3.732;2023-05-06T07:09:45;8.60;;;4.15;;
21018;SDS011;10667;51.056;3.732;2023-05-06T07:12:11;7.05;;;4.38;;
21018;SDS011;10667;51.056;3.732;2023-05-06T07:14:37;6.47;;;4.30;;
21018;SDS011;10667;51.056;3.732;2023-05-06T07:17:02;5.65;;;4.18;;
21018;SDS011;10667;51.056;3.732;2023-05-06T07:19:28;5.90;;;4.00;;
21018;SDS011;10667;51.056;3.732;2023-05-06T07:21:55;6.55;;;3.83;;
21018;SDS011;10667;51.056;3.732;2023-05-06T07:24:21;7.78;;;4.65;;
21018;SDS011;10667;51.056;3.732;2023-05-06T07:26:47;9.23;;;4.03;;
21018;SDS011;10667;51.056;3.732;2023-05-06T07:29:13;7.25;;;4.72;;
21018;SDS011;10667;51.056;3.732;2023-05-06T07:31:39;7.50;;;4.35;;
21018;SDS011;10667;51.056;3.732;2023-05-06T07:34:05;5.78;;;4.22;;
21018;SDS011;10667;51.056;3.732;2023-05-06T07:36:31;6.88;;;3.88;;
21018;SDS011;10667;51.056;3.732;2023-05-06T07:39:04;7.53;;;4.90;;
21018;SDS011;10667;51.056;3.732;2023-05-06T07:41:33;9.30;;;3.97;;
21018;SDS011;10667;51.056;3.732;2023-05-06T07:43:59;7.95;;;4.43;;
21018;SDS011;10667;51.056;3.732;2023-05-06T07:46:24;6.32;;;4.32;;
21018;SDS011;10667;51.056;3.732;2023-05-06T07:48:50;7.38;;;4.10;;
21018;SDS011;10667;51.056;3.732;2023-05-06T07:51:16;8.20;;;4.80;;
21018;SDS011;10667;51.056;3.732;2023-05-06T07:53:43;6.45;;;4.30;;
21018;SDS011;10667;51.056;3.732;2023-05-06T07:56:09;6.82;;;3.42;;
21018;SDS011;10667;51.056;3.732;2023-05-06T07:58:34;7.68;;;3.97;;
21018;SDS011;10667;51.056;3.732;2023-05-06T08:01:00;6.13;;;3.35;;
21018;SDS011;10667;51.056;3.732;2023-05-06T08:03:27;8.05;;;3.20;;
21018;SDS011;10667;51.056;3.732;2023-05-06T08:05:53;10.55;;;4.00;;
21018;SDS011;10667;51.056;3.732;2023-05-06T08:08:20;7.78;;;3.60;;
21018;SDS011;10667;51.056;3.732;2023-05-06T08:10:46;5.30;;;3.47;;
21018;SDS011;10667;51.056;3.732;2023-05-06T08:13:12;8.48;;;3.72;;
21018;SDS011;10667;51.056;3.732;2023-05-06T08:15:38;10.65;;;4.30;;
21018;SDS011;10667;51.056;3.732;2023-05-06T08:18:04;5.95;;;3.42;;
21018;SDS011;10667;51.056;3.732;2023-05-06T08:20:30;6.18;;;3.67;;
21018;SDS011;10667;51.056;3.732;2023-05-06T08:22:55;7.22;;;4.25;;
21018;SDS011;10667;51.056;3.732;2023-05-06T08:25:21;6.57;;;3.50;;
21018;SDS011;10667;51.056;3.732;2023-05-06T08:27:47;7.70;;;4.40;;
21018;SDS011;10667;51.056;3.732;2023-05-06T08:30:13;7.40;;;3.67;;
21018;SDS011;10667;51.056;3.732;2023-05-06T08:32:40;7.00;;;3.45;;
21018;SDS011;10667;51.056;3.732;2023-05-06T08:35:06;7.80;;;3.50;;
21018;SDS011;10667;51.056;3.732;2023-05-06T08:37:32;8.07;;;3.85;;
21018;SDS011;10667;51.056;3.732;2023-05-06T08:39:57;9.18;;;4.30;;
21018;SDS011;10667;51.056;3.732;2023-05-06T08:42:24;6.30;;;3.85;;
21018;SDS011;10667;51.056;3.732;2023-05-06T08:44:50;6.57;;;3.50;;
21018;SDS011;10667;51.056;3.732;2023-05-06T08:47:17;4.85;;;3.10;;
21018;SDS011;10667;51.056;3.732;2023-05-06T08:49:44;5.95;;;3.20;;
21018;SDS011;10667;51.056;3.732;2023-05-06T08:52:10;7.32;;;3.15;;
21018;SDS011;10667;51.056;3.732;2023-05-06T08:54:36;7.18;;;3.00;;
21018;SDS011;10667;51.056;3.732;2023-05-06T08:57:03;4.45;;;2.55;;
21018;SDS011;10667;51.056;3.732;2023-05-06T08:59:32;4.53;;;2.33;;
21018;SDS011;10667;51.056;3.732;2023-05-06T09:01:59;6.45;;;2.95;;
21018;SDS011;10667;51.056;3.732;2023-05-06T09:04:26;9.90;;;2.50;;
21018;SDS011;10667;51.056;3.732;2023-05-06T09:06:51;4.93;;;2.50;;
21018;SDS011;10667;51.056;3.732;2023-05-06T09:09:17;5.32;;;2.80;;
21018;SDS011;10667;51.056;3.732;2023-05-06T09:11:43;5.53;;;2.78;;
21018;SDS011;10667;51.056;3.732;2023-05-06T09:14:16;7.43;;;2.47;;
21018;SDS011;10667;51.056;3.732;2023-05-06T09:16:43;4.80;;;2.45;;
21018;SDS011;10667;51.056;3.732;2023-05-06T09:19:10;6.10;;;3.10;;
21018;SDS011;10667;51.056;3.732;2023-05-06T09:21:36;8.90;;;2.75;;
21018;SDS011;10667;51.056;3.732;2023-05-06T09:24:04;7.40;;;3.22;;
21018;SDS011;10667;51.056;3.732;2023-05-06T09:26:32;6.28;;;2.72;;
21018;SDS011;10667;51.056;3.732;2023-05-06T09:28:59;8.23;;;3.00;;
21018;SDS011;10667;51.056;3.732;2023-05-06T09:31:25;9.50;;;3.15;;
21018;SDS011;10667;51.056;3.732;2023-05-06T09:33:56;4.75;;;2.20;;
21018;SDS011;10667;51.056;3.732;2023-05-06T09:36:23;4.88;;;2.38;;
21018;SDS011;10667;51.056;3.732;2023-05-06T09:38:51;8.20;;;3.00;;
21018;SDS011;10667;51.056;3.732;2023-05-06T09:41:21;5.57;;;2.55;;
21018;SDS011;10667;51.056;3.732;2023-05-06T09:43:50;4.97;;;2.28;;
21018;SDS011;10667;51.056;3.732;2023-05-06T09:46:17;6.82;;;2.88;;
21018;SDS011;10667;51.056;3.732;2023-05-06T09:48:44;5.63;;;2.03;;
21018;SDS011;10667;51.056;3.732;2023-05-06T09:51:10;4.45;;;2.25;;
21018;SDS011;10667;51.056;3.732;2023-05-06T09:53:37;6.57;;;2.08;;
21018;SDS011;10667;51.056;3.732;2023-05-06T09:56:03;5.30;;;1.75;;
21018;SDS011;10667;51.056;3.732;2023-05-06T09:58:30;6.20;;;2.10;;
21018;SDS011;10667;51.056;3.732;2023-05-06T10:00:56;4.43;;;1.88;;
21018;SDS011;10667;51.056;3.732;2023-05-06T10:03:22;5.45;;;2.08;;
21018;SDS011;10667;51.056;3.732;2023-05-06T10:05:50;4.68;;;2.05;;
21018;SDS011;10667;51.056;3.732;2023-05-06T10:08:17;5.22;;;2.08;;
21018;SDS011;10667;51.056;3.732;2023-05-06T10:10:43;8.07;;;2.55;;
21018;SDS011;10667;51.056;3.732;2023-05-06T10:13:11;8.02;;;2.72;;
21018;SDS011;10667;51.056;3.732;2023-05-06T10:15:37;5.53;;;2.50;;
21018;SDS011;10667;51.056;3.732;2023-05-06T10:18:04;6.93;;;3.08;;
21018;SDS011;10667;51.056;3.732;2023-05-06T10:20:32;9.68;;;2.92;;
21018;SDS011;10667;51.056;3.732;2023-05-06T10:25:58;5.68;;;2.65;;
21018;SDS011;10667;51.056;3.732;2023-05-06T10:28:30;6.40;;;2.70;;
21018;SDS011;10667;51.056;3.732;2023-05-06T10:30:57;4.40;;;2.40;;
21018;SDS011;10667;51.056;3.732;2023-05-06T10:33:23;5.30;;;2.13;;
21018;SDS011;10667;51.056;3.732;2023-05-06T10:35:52;3.90;;;2.30;;
21018;SDS011;10667;51.056;3.732;2023-05-06T10:38:39;5.22;;;2.10;;
21018;SDS011;10667;51.056;3.732;2023-05-06T10:41:07;2.85;;;1.98;;
21018;SDS011;10667;51.056;3.732;2023-05-06T10:43:38;4.85;;;2.65;;
21018;SDS011;10667;51.056;3.732;2023-05-06T10:46:08;4.20;;;2.45;;
21018;SDS011;10667;51.056;3.732;2023-05-06T10:48:36;3.35;;;2.10;;
21018;SDS011;10667;51.056;3.732;2023-05-06T10:51:22;2.75;;;2.25;;
21018;SDS011;10667;51.056;3.732;2023-05-06T10:53:55;3.58;;;2.30;;
21018;SDS011;10667;51.056;3.732;2023-05-06T10:59:01;4.18;;;2.15;;
21018;SDS011;10667;51.056;3.732;2023-05-06T11:01:34;5.53;;;2.28;;
21018;SDS011;10667;51.056;3.732;2023-05-06T11:04:08;5.25;;;2.38;;
21018;SDS011;10667;51.056;3.732;2023-05-06T11:06:46;4.30;;;2.78;;
21018;SDS011;10667;51.056;3.732;2023-05-06T11:09:20;13.10;;;3.20;;
21018;SDS011;10667;51.056;3.732;2023-05-06T11:14:27;9.00;;;2.30;;
21018;SDS011;10667;51.056;3.732;2023-05-06T11:17:04;8.55;;;3.30;;
21018;SDS011;10667;51.056;3.732;2023-05-06T11:19:32;3.88;;;2.45;;
21018;SDS011;10667;51.056;3.732;2023-05-06T11:22:00;6.80;;;2.28;;
21018;SDS011;10667;51.056;3.732;2023-05-06T11:24:27;4.68;;;2.33;;
21018;SDS011;10667;51.056;3.732;2023-05-06T11:26:54;3.95;;;2.05;;
21018;SDS011;10667;51.056;3.732;2023-05-06T11:29:22;6.97;;;2.88;;
21018;SDS011;10667;51.056;3.732;2023-05-06T11:31:48;6.28;;;2.72;;
21018;SDS011;10667;51.056;3.732;2023-05-06T11:34:24;6.53;;;2.60;;
21018;SDS011;10667;51.056;3.732;2023-05-06T11:36:58;8.35;;;2.67;;
21018;SDS011;10667;51.056;3.732;2023-05-06T11:39:28;3.80;;;2.22;;
21018;SDS011;10667;51.056;3.732;2023-05-06T11:41:58;8.73;;;2.60;;
21018;SDS011;10667;51.056;3.732;2023-05-06T11:44:27;7.20;;;3.17;;
21018;SDS011;10667;51.056;3.732;2023-05-06T11:46:57;3.38;;;1.75;;
21018;SDS011;10667;51.056;3.732;2023-05-06T11:49:27;4.30;;;2.42;;
21018;SDS011;10667;51.056;3.732;2023-05-06T11:51:53;6.38;;;2.30;;
21018;SDS011;10667;51.056;3.732;2023-05-06T11:54:20;5.75;;;2.75;;
21018;SDS011;10667;51.056;3.732;2023-05-06T11:56:47;8.48;;;2.53;;
21018;SDS011;10667;51.056;3.732;2023-05-06T11:59:14;6.70;;;2.47;;
21018;SDS011;10667;51.056;3.732;2023-05-06T12:01:42;8.18;;;2.25;;
21018;SDS011;10667;51.056;3.732;2023-05-06T12:04:09;4.32;;;1.83;;
21018;SDS011;10667;51.056;3.732;2023-05-06T12:06:35;9.88;;;2.40;;
21018;SDS011;10667;51.056;3.732;2023-05-06T12:09:02;6.10;;;1.77;;
21018;SDS011;10667;51.056;3.732;2023-05-06T12:11:29;5.68;;;2.03;;
21018;SDS011;10667;51.056;3.732;2023-05-06T12:13:56;6.20;;;2.03;;
21018;SDS011;10667;51.056;3.732;2023-05-06T12:16:23;6.18;;;2.28;;
21018;SDS011;10667;51.056;3.732;2023-05-06T12:18:50;5.68;;;2.05;;
21018;SDS011;10667;51.056;3.732;2023-05-06T12:21:21;6.18;;;1.92;;
21018;SDS011;10667;51.056;3.732;2023-05-06T12:23:51;6.47;;;2.15;;
21018;SDS011;10667;51.056;3.732;2023-05-06T12:26:20;6.75;;;1.75;;
21018;SDS011;10667;51.056;3.732;2023-05-06T12:28:46;5.07;;;1.73;;
21018;SDS011;10667;51.056;3.732;2023-05-06T12:31:39;7.30;;;1.80;;
21018;SDS011;10667;51.056;3.732;2023-05-06T12:34:06;5.80;;;1.77;;
21018;SDS011;10667;51.056;3.732;2023-05-06T12:36:32;3.22;;;1.35;;
21018;SDS011;10667;51.056;3.732;2023-05-06T12:39:03;5.82;;;1.52;;
21018;SDS011;10667;51.056;3.732;2023-05-06T12:41:42;6.13;;;1.80;;
21018;SDS011;10667;51.056;3.732;2023-05-06T12:52:16;6.50;;;2.05;;
21018;SDS011;10667;51.056;3.732;2023-05-06T12:54:43;5.30;;;2.33;;
21018;SDS011;10667;51.056;3.732;2023-05-06T12:57:10;7.32;;;2.50;;
21018;SDS011;10667;51.056;3.732;2023-05-06T12:59:36;6.78;;;2.65;;
21018;SDS011;10667;51.056;3.732;2023-05-06T13:02:02;6.43;;;2.28;;
21018;SDS011;10667;51.056;3.732;2023-05-06T13:04:28;5.60;;;2.22;;
21018;SDS011;10667;51.056;3.732;2023-05-06T13:06:54;10.88;;;2.42;;
21018;SDS011;10667;51.056;3.732;2023-05-06T13:09:21;7.88;;;2.70;;
21018;SDS011;10667;51.056;3.732;2023-05-06T13:11:47;5.50;;;2.03;;
21018;SDS011;10667;51.056;3.732;2023-05-06T13:14:13;7.55;;;1.73;;
21018;SDS011;10667;51.056;3.732;2023-05-06T13:16:38;5.05;;;2.13;;
21018;SDS011;10667;51.056;3.732;2023-05-06T13:19:06;3.85;;;1.98;;
21018;SDS011;10667;51.056;3.732;2023-05-06T13:21:34;7.13;;;2.42;;
21018;SDS011;10667;51.056;3.732;2023-05-06T13:24:00;6.68;;;2.22;;
21018;SDS011;10667;51.056;3.732;2023-05-06T13:26:26;5.45;;;2.10;;
21018;SDS011;10667;51.056;3.732;2023-05-06T13:28:51;5.85;;;2.45;;
21018;SDS011;10667;51.056;3.732;2023-05-06T13:31:17;6.35;;;2.45;;
21018;SDS011;10667;51.056;3.732;2023-05-06T13:33:43;6.30;;;2.80;;
21018;SDS011;10667;51.056;3.732;2023-05-06T13:36:08;6.85;;;2.78;;
21018;SDS011;10667;51.056;3.732;2023-05-06T13:38:34;7.07;;;2.65;;
21018;SDS011;10667;51.056;3.732;2023-05-06T13:41:00;7.45;;;3.15;;
21018;SDS011;10667;51.056;3.732;2023-05-06T13:43:25;8.60;;;3.03;;
21018;SDS011;10667;51.056;3.732;2023-05-06T13:45:51;6.78;;;3.25;;
21018;SDS011;10667;51.056;3.732;2023-05-06T13:48:17;6.35;;;2.95;;
21018;SDS011;10667;51.056;3.732;2023-05-06T13:50:43;7.68;;;3.10;;
21018;SDS011;10667;51.056;3.732;2023-05-06T13:53:13;6.93;;;3.45;;
21018;SDS011;10667;51.056;3.732;2023-05-06T13:55:39;4.88;;;2.95;;
21018;SDS011;10667;51.056;3.732;2023-05-06T13:58:05;7.13;;;3.20;;
21018;SDS011;10667;51.056;3.732;2023-05-06T14:00:32;6.50;;;3.35;;
21018;SDS011;10667;51.056;3.732;2023-05-06T14:02:58;5.72;;;3.03;;
21018;SDS011;10667;51.056;3.732;2023-05-06T14:05:24;6.03;;;2.90;;
21018;SDS011;10667;51.056;3.732;2023-05-06T14:07:50;8.50;;;3.03;;
21018;SDS011;10667;51.056;3.732;2023-05-06T14:10:16;6.07;;;2.67;;
21018;SDS011;10667;51.056;3.732;2023-05-06T14:12:42;11.02;;;3.35;;
21018;SDS011;10667;51.056;3.732;2023-05-06T14:15:08;8.57;;;2.80;;
21018;SDS011;10667;51.056;3.732;2023-05-06T14:17:34;6.07;;;2.95;;
21018;SDS011;10667;51.056;3.732;2023-05-06T14:20:00;6.97;;;3.00;;
21018;SDS011;10667;51.056;3.732;2023-05-06T14:22:27;5.75;;;2.92;;
21018;SDS011;10667;51.056;3.732;2023-05-06T14:24:53;6.38;;;2.60;;
21018;SDS011;10667;51.056;3.732;2023-05-06T14:27:19;7.13;;;2.95;;
21018;SDS011;10667;51.056;3.732;2023-05-06T14:29:44;5.72;;;2.90;;
21018;SDS011;10667;51.056;3.732;2023-05-06T14:32:11;7.40;;;2.78;;
21018;SDS011;10667;51.056;3.732;2023-05-06T14:34:36;6.47;;;2.80;;
21018;SDS011;10667;51.056;3.732;2023-05-06T14:37:02;7.90;;;2.72;;
21018;SDS011;10667;51.056;3.732;2023-05-06T14:39:28;6.25;;;2.95;;
21018;SDS011;10667;51.056;3.732;2023-05-06T14:41:53;8.63;;;2.60;;
21018;SDS011;10667;51.056;3.732;2023-05-06T14:44:19;13.90;;;2.45;;
21018;SDS011;10667;51.056;3.732;2023-05-06T14:46:45;10.85;;;2.55;;
21018;SDS011;10667;51.056;3.732;2023-05-06T14:49:11;6.72;;;2.50;;
21018;SDS011;10667;51.056;3.732;2023-05-06T14:51:36;8.93;;;2.53;;
21018;SDS011;10667;51.056;3.732;2023-05-06T14:54:02;8.02;;;2.53;;
21018;SDS011;10667;51.056;3.732;2023-05-06T14:56:28;6.32;;;2.13;;
21018;SDS011;10667;51.056;3.732;2023-05-06T14:58:53;8.63;;;2.67;;
21018;SDS011;10667;51.056;3.732;2023-05-06T15:01:19;8.85;;;2.40;;
21018;SDS011;10667;51.056;3.732;2023-05-06T15:03:45;8.95;;;2.33;;
21018;SDS011;10667;51.056;3.732;2023-05-06T15:06:10;8.80;;;2.92;;
21018;SDS011;10667;51.056;3.732;2023-05-06T15:08:36;5.10;;;2.42;;
21018;SDS011;10667;51.056;3.732;2023-05-06T15:11:02;7.70;;;2.17;;